createdAt,value
2019-04-10T00:04:28.150Z,15.13
2019-04-10T00:07:19.777Z,14.60
2019-04-10T00:10:02.023Z,15.17
2019-04-10T00:12:44.183Z,17.97
2019-04-10T00:15:34.721Z,17.90
2019-04-10T00:18:18.383Z,16.00
2019-04-10T00:21:09.060Z,16.27
2019-04-10T00:23:59.673Z,16.97
2019-04-10T00:26:41.880Z,18.40
2019-04-10T00:29:32.098Z,18.33
2019-04-10T00:32:16.119Z,18.20
2019-04-10T00:35:06.488Z,18.83
2019-04-10T00:37:49.909Z,18.90
2019-04-10T00:40:39.613Z,19.60
2019-04-10T00:43:22.558Z,20.57
2019-04-10T00:46:12.343Z,20.07
2019-04-10T00:48:54.552Z,19.57
2019-04-10T00:51:44.381Z,18.47
2019-04-10T00:54:33.373Z,17.93
2019-04-10T01:00:19.127Z,18.37
2019-04-10T01:03:09.370Z,18.30
2019-04-10T01:06:00.287Z,17.77
2019-04-10T01:08:42.854Z,18.53
2019-04-10T01:11:32.893Z,19.07
2019-04-10T01:14:23.409Z,18.23
2019-04-10T01:16:55.753Z,17.20
2019-04-10T01:19:39.761Z,19.30
2019-04-10T01:22:28.919Z,18.23
2019-04-10T01:25:12.426Z,18.23
2019-04-10T01:28:02.706Z,18.77
2019-04-10T01:30:46.612Z,18.53
2019-04-10T01:36:31.535Z,17.43
2019-04-10T01:42:21.355Z,17.97
2019-04-10T01:45:11.398Z,18.63
2019-04-10T01:47:55.368Z,18.33
2019-04-10T01:50:45.052Z,18.93
2019-04-10T01:53:27.960Z,18.70
2019-04-10T01:56:24.939Z,17.93
2019-04-10T01:59:01.892Z,17.43
2019-04-10T02:02:10.486Z,17.93
2019-04-10T02:04:54.912Z,18.70
2019-04-10T02:08:09.974Z,18.53
2019-04-10T02:10:48.172Z,19.30
2019-04-10T02:13:39.313Z,18.47
2019-04-10T02:16:25.527Z,18.90
2019-04-10T02:19:34.429Z,18.70
2019-04-10T02:22:24.596Z,19.30
2019-04-10T02:25:08.867Z,21.07
2019-04-10T02:27:58.670Z,22.20
2019-04-10T02:33:42.772Z,22.70
2019-04-10T02:36:34.412Z,24.63
2019-04-10T02:39:26.629Z,24.37
2019-04-10T02:42:10.062Z,21.93
2019-04-10T02:44:54.181Z,24.33
2019-04-10T02:47:44.977Z,23.37
2019-04-10T02:50:29.388Z,24.37
2019-04-10T02:56:24.887Z,24.87
2019-04-10T02:59:08.972Z,25.30
2019-04-10T03:02:00.338Z,22.97
2019-04-10T03:07:42.857Z,22.80
2019-04-10T03:10:36.828Z,21.23
2019-04-10T03:13:31.096Z,21.93
2019-04-10T03:16:13.979Z,21.30
2019-04-10T03:19:03.976Z,22.27
2019-04-10T03:21:47.118Z,22.60
2019-04-10T03:24:38.036Z,23.40
2019-04-10T03:27:22.567Z,22.70
2019-04-10T03:30:07.317Z,23.57
2019-04-10T03:33:19.840Z,23.77
2019-04-10T03:36:00.327Z,25.50
2019-04-10T03:38:59.592Z,25.63
2019-04-10T03:41:36.616Z,27.30
2019-04-10T03:44:27.064Z,28.30
2019-04-10T03:47:11.290Z,27.40
2019-04-10T03:50:01.108Z,29.27
2019-04-10T03:52:51.766Z,26.07
2019-04-10T03:55:36.787Z,25.80
2019-04-10T03:58:27.299Z,24.87
2019-04-10T04:01:11.001Z,24.37
2019-04-10T04:04:01.463Z,22.83
2019-04-10T04:06:44.829Z,24.07
2019-04-10T04:09:35.610Z,22.13
2019-04-10T04:12:19.017Z,22.93
2019-04-10T04:15:09.533Z,23.60
2019-04-10T04:18:00.379Z,23.70
2019-04-10T04:20:50.993Z,24.00
2019-04-10T04:23:38.356Z,22.17
2019-04-10T04:26:28.228Z,24.13
2019-04-10T04:29:12.155Z,23.47
2019-04-10T04:32:01.899Z,23.10
2019-04-10T04:34:45.366Z,24.10
2019-04-10T04:37:28.050Z,24.03
2019-04-10T04:40:17.906Z,23.27
2019-04-10T04:43:07.934Z,22.10
2019-04-10T04:45:52.981Z,26.17
2019-04-10T04:48:43.310Z,22.70
2019-04-10T04:51:27.675Z,22.03
2019-04-10T04:54:17.461Z,23.43
2019-04-10T04:57:07.227Z,23.23
2019-04-10T04:59:57.024Z,22.60
2019-04-10T05:02:47.049Z,22.27
2019-04-10T05:05:31.419Z,22.93
2019-04-10T05:08:13.983Z,22.83
2019-04-10T05:11:04.831Z,22.30
2019-04-10T05:16:39.527Z,22.37
2019-04-10T05:19:29.756Z,21.50
2019-04-10T05:22:13.171Z,23.27
2019-04-10T05:25:03.172Z,22.77
2019-04-10T05:30:43.738Z,22.17
2019-04-10T05:33:33.485Z,21.27
2019-04-10T05:39:39.167Z,23.23
2019-04-10T05:42:11.264Z,22.33
2019-04-10T05:45:01.123Z,22.27
2019-04-10T05:47:50.954Z,22.37
2019-04-10T05:50:52.545Z,20.63
2019-04-10T05:53:26.662Z,23.13
2019-04-10T05:56:16.526Z,21.87
2019-04-10T05:59:08.557Z,22.90
2019-04-10T06:04:52.488Z,22.63
2019-04-10T06:07:43.438Z,22.67
2019-04-10T06:10:26.729Z,22.17
2019-04-10T06:13:17.142Z,22.57
2019-04-10T06:16:01.830Z,23.87
2019-04-10T06:18:51.588Z,22.67
2019-04-10T06:21:33.874Z,22.13
2019-04-10T06:24:24.511Z,22.47
2019-04-10T06:27:08.213Z,24.00
2019-04-10T06:29:58.045Z,23.17
2019-04-10T06:32:40.838Z,23.73
2019-04-10T06:35:30.558Z,23.43
2019-04-10T06:38:12.825Z,23.30
2019-04-10T06:41:02.582Z,23.33
2019-04-10T06:43:45.366Z,23.33
2019-04-10T06:46:37.555Z,23.00
2019-04-10T06:49:19.042Z,21.77
2019-04-10T06:52:08.846Z,23.47
2019-04-10T06:54:58.646Z,22.57
2019-04-10T06:57:54.430Z,24.17
2019-04-10T07:00:32.726Z,23.03
2019-04-10T07:03:23.141Z,22.70
2019-04-10T07:06:14.224Z,21.83
2019-04-10T07:08:59.154Z,21.57
2019-04-10T07:12:00.978Z,21.60
2019-04-10T07:14:51.541Z,21.27
2019-04-10T07:17:37.536Z,21.60
2019-04-10T07:20:44.297Z,21.13
2019-04-10T07:23:34.058Z,20.80
2019-04-10T07:26:33.501Z,21.43
2019-04-10T07:29:08.825Z,20.17
2019-04-10T07:31:58.809Z,20.90
2019-04-10T07:34:48.770Z,20.20
2019-04-10T07:37:33.973Z,21.07
2019-04-10T07:40:24.841Z,22.17
2019-04-10T07:43:08.019Z,22.03
2019-04-10T07:45:57.859Z,24.43
2019-04-10T07:48:47.638Z,21.67
2019-04-10T07:51:50.345Z,21.50
2019-04-10T07:54:33.326Z,20.67
2019-04-10T07:57:22.998Z,21.80
2019-04-10T08:00:08.901Z,22.50
2019-04-10T08:02:59.509Z,20.63
2019-04-10T08:05:44.015Z,20.83
2019-04-10T08:08:34.048Z,22.40
2019-04-10T08:11:17.634Z,21.00
2019-04-10T08:14:08.436Z,21.87
2019-04-10T08:16:51.860Z,21.20
2019-04-10T08:19:41.683Z,21.40
2019-04-10T08:22:24.081Z,20.20
2019-04-10T08:25:14.274Z,21.60
2019-04-10T08:27:58.549Z,21.40
2019-04-10T08:30:48.394Z,20.50
2019-04-10T08:33:32.629Z,20.53
2019-04-10T08:36:23.438Z,21.67
2019-04-10T08:39:06.986Z,20.97
2019-04-10T08:41:57.707Z,22.30
2019-04-10T08:44:48.659Z,23.43
2019-04-10T08:47:39.677Z,21.47
2019-04-10T08:50:23.336Z,21.47
2019-04-10T08:53:13.861Z,22.30
2019-04-10T08:55:57.089Z,21.03
2019-04-10T08:58:48.241Z,21.63
2019-04-10T09:01:31.509Z,21.60
2019-04-10T09:04:21.301Z,20.50
2019-04-10T09:07:05.751Z,20.80
2019-04-10T09:09:56.246Z,20.67
2019-04-10T09:12:39.667Z,20.07
2019-04-10T09:15:29.941Z,19.40
2019-04-10T09:18:13.244Z,19.50
2019-04-10T09:21:02.996Z,18.90
2019-04-10T09:23:54.910Z,19.57
2019-04-10T09:26:38.257Z,19.73
2019-04-10T09:29:28.030Z,20.77
2019-04-10T09:32:12.569Z,19.80
2019-04-10T09:34:56.201Z,20.70
2019-04-10T09:37:46.291Z,20.10
2019-04-10T09:40:30.384Z,19.30
2019-04-10T09:43:21.044Z,19.40
2019-04-10T09:46:04.780Z,19.20
2019-04-10T09:48:54.586Z,18.83
2019-04-10T09:51:44.382Z,18.80
2019-04-10T09:54:34.848Z,18.53
2019-04-10T09:57:24.584Z,18.60
2019-04-10T10:00:10.420Z,16.90
2019-04-10T10:03:01.419Z,18.13
2019-04-10T10:05:44.612Z,17.87
2019-04-10T10:11:38.620Z,17.20
2019-04-10T10:14:24.444Z,17.20
2019-04-10T10:17:08.510Z,15.93
2019-04-10T10:19:59.459Z,15.83
2019-04-10T10:22:42.402Z,15.07
2019-04-10T10:28:25.694Z,15.53
2019-04-10T10:31:15.857Z,15.93
2019-04-10T10:34:06.033Z,14.00
2019-04-10T10:36:52.867Z,14.63
2019-04-10T10:39:41.498Z,14.57
2019-04-10T10:42:25.704Z,13.50
2019-04-10T10:45:15.560Z,12.93
2019-04-10T10:48:24.482Z,11.40
2019-04-10T10:51:14.875Z,12.00
2019-04-10T10:54:01.407Z,12.87
2019-04-10T10:56:43.268Z,14.97
2019-04-10T10:59:33.551Z,16.00
2019-04-10T11:02:17.343Z,15.47
2019-04-10T11:05:08.439Z,15.47
2019-04-10T11:07:51.572Z,17.90
2019-04-10T11:10:41.449Z,16.70
2019-04-10T11:13:31.282Z,17.63
2019-04-10T11:16:21.127Z,17.37
2019-04-10T11:19:11.193Z,18.73
2019-04-10T11:22:01.042Z,19.50
2019-04-10T11:24:51.273Z,18.10
2019-04-10T11:27:35.565Z,16.97
2019-04-10T11:30:26.875Z,16.60
2019-04-10T11:36:01.531Z,16.30
2019-04-10T11:41:31.266Z,15.77
2019-04-10T11:44:24.904Z,14.73
2019-04-10T11:50:46.149Z,13.37
2019-04-10T11:56:23.506Z,14.27
2019-04-10T11:59:14.437Z,13.00
2019-04-10T12:02:02.773Z,12.20
2019-04-10T12:13:32.521Z,12.17
2019-04-10T12:16:23.078Z,12.50
2019-04-10T12:19:06.898Z,12.90
2019-04-10T12:21:57.923Z,12.47
2019-04-10T12:24:42.542Z,12.77
2019-04-10T12:27:33.444Z,12.87
2019-04-10T12:30:17.374Z,12.43
2019-04-10T12:33:07.591Z,14.00
2019-04-10T12:35:54.006Z,13.93
2019-04-10T12:38:43.872Z,12.80
2019-04-10T12:41:27.628Z,13.07
2019-04-10T12:44:17.813Z,13.70
2019-04-10T12:47:01.941Z,14.67
2019-04-10T12:49:51.900Z,15.10
2019-04-10T12:52:40.888Z,16.00
2019-04-10T12:58:33.643Z,23.63
2019-04-10T13:01:23.384Z,26.37
2019-04-10T13:04:07.479Z,28.40
2019-04-10T13:06:57.365Z,28.40
2019-04-10T13:09:40.142Z,27.97
2019-04-10T13:12:49.311Z,28.50
2019-04-10T13:15:32.869Z,28.70
2019-04-10T13:18:22.692Z,28.20
2019-04-10T13:21:08.888Z,28.47
2019-04-10T13:24:01.436Z,28.93
2019-04-10T13:26:46.132Z,29.10
2019-04-10T13:32:45.141Z,28.30
2019-04-10T13:35:28.414Z,28.57
2019-04-10T13:38:26.648Z,22.20
2019-04-10T13:41:03.966Z,24.80
2019-04-10T13:43:54.605Z,27.33
2019-04-10T13:46:44.924Z,22.43
2019-04-10T13:49:31.178Z,24.40
2019-04-10T13:55:40.100Z,19.67
2019-04-10T13:58:11.145Z,21.30
2019-04-10T14:01:03.022Z,23.17
2019-04-10T14:03:50.448Z,23.13
2019-04-10T14:06:34.028Z,25.23
2019-04-10T14:09:48.190Z,28.93
2019-04-10T14:12:29.104Z,30.23
2019-04-10T14:15:20.230Z,31.00
2019-04-10T14:18:06.103Z,31.07
2019-04-10T14:20:37.619Z,33.57
2019-04-10T14:29:51.788Z,33.83
2019-04-10T14:32:41.750Z,33.43
2019-04-10T14:35:27.359Z,33.53
2019-04-10T14:38:17.722Z,34.87
2019-04-10T14:41:01.163Z,36.07
2019-04-10T14:43:51.137Z,35.07
2019-04-10T14:46:36.344Z,34.27
2019-04-10T14:49:27.214Z,33.43
2019-04-10T14:52:12.696Z,34.03
2019-04-10T14:55:03.957Z,33.53
2019-04-10T14:57:47.393Z,34.67
2019-04-10T15:00:59.843Z,36.47
2019-04-10T15:03:44.550Z,33.97
2019-04-10T15:06:35.068Z,33.50
2019-04-10T15:09:25.611Z,34.80
2019-04-10T15:12:14.301Z,35.60
2019-04-10T15:15:00.185Z,36.77
2019-04-10T15:17:52.751Z,39.20
2019-04-10T15:20:36.044Z,40.47
2019-04-10T15:23:26.186Z,43.20
2019-04-10T15:29:12.223Z,45.27
2019-04-10T15:57:02.735Z,44.80
2019-04-10T16:02:53.859Z,41.60
2019-04-10T16:08:36.582Z,38.83
2019-04-10T16:11:45.933Z,38.67
2019-04-10T16:21:00.512Z,37.43
2019-04-10T16:23:47.685Z,41.70
2019-04-10T16:26:33.567Z,41.83
2019-04-10T16:32:10.710Z,46.93
2019-04-10T16:35:00.643Z,44.83
2019-04-10T16:37:51.534Z,45.70
2019-04-10T16:43:48.607Z,45.50
2019-04-10T16:46:40.354Z,46.40
2019-04-10T16:49:14.783Z,46.63
2019-04-10T16:52:04.999Z,45.13
2019-04-10T16:54:59.771Z,47.80
2019-04-10T16:57:43.121Z,48.87
2019-04-10T17:00:33.258Z,48.57
2019-04-10T17:12:17.813Z,44.43
2019-04-10T17:18:12.768Z,46.33
2019-04-10T17:20:59.054Z,46.17
2019-04-10T17:23:32.800Z,46.97
2019-04-10T17:26:25.005Z,46.07
2019-04-10T17:32:06.978Z,47.60
2019-04-10T17:35:00.645Z,46.37
2019-04-10T17:41:25.970Z,50.40
2019-04-10T17:43:45.523Z,48.97
2019-04-10T17:50:14.018Z,50.30
2019-04-10T17:55:55.925Z,51.17
2019-04-10T17:58:39.854Z,52.40
2019-04-10T18:17:35.423Z,52.77
2019-04-10T18:20:26.230Z,54.67
2019-04-10T18:23:09.516Z,54.60
2019-04-10T18:26:00.408Z,53.83
2019-04-10T18:28:43.737Z,55.77
2019-04-10T18:31:34.636Z,58.23
2019-04-10T18:34:17.288Z,58.27
2019-04-10T18:37:14.612Z,60.43
2019-04-10T18:39:55.538Z,63.70
2019-04-10T18:42:45.792Z,61.80
2019-04-10T18:45:35.631Z,66.30
2019-04-10T18:48:18.683Z,66.77
2019-04-10T18:51:10.854Z,65.93
2019-04-10T18:53:59.462Z,72.13
2019-04-10T18:57:09.384Z,70.83
2019-04-10T19:03:28.019Z,70.97
2019-04-10T19:09:22.878Z,76.03
2019-04-10T19:12:26.474Z,76.90
2019-04-10T19:15:10.755Z,75.60
2019-04-10T19:18:01.443Z,75.10
2019-04-10T19:20:44.675Z,74.87
2019-04-10T19:23:34.704Z,77.43
2019-04-10T19:26:24.501Z,79.47
2019-04-10T19:29:07.517Z,79.90
2019-04-10T19:35:06.507Z,84.60
2019-04-10T19:37:51.292Z,85.60
2019-04-10T19:40:40.815Z,84.87
2019-04-10T19:43:31.609Z,86.60
2019-04-10T19:46:15.442Z,87.83
2019-04-10T19:49:18.053Z,85.87
2019-04-10T19:52:04.543Z,86.63
2019-04-10T19:54:55.189Z,88.30
2019-04-10T19:57:39.479Z,91.93
2019-04-10T20:00:49.004Z,90.63
2019-04-10T20:03:32.081Z,89.47
2019-04-10T20:06:23.566Z,89.67
2019-04-10T20:12:23.245Z,86.83
2019-04-10T20:17:46.320Z,86.40
2019-04-10T20:20:33.163Z,90.60
2019-04-10T20:23:17.419Z,87.00
2019-04-10T20:25:48.450Z,93.83
2019-04-10T20:28:38.742Z,92.90
2019-04-10T20:31:31.601Z,93.37
2019-04-10T20:34:21.476Z,92.80
2019-04-10T20:37:11.972Z,92.43
2019-04-10T20:39:55.873Z,90.30
2019-04-10T20:42:46.596Z,80.57
2019-04-10T20:45:29.869Z,91.07
2019-04-10T20:48:12.152Z,87.60
2019-04-10T20:50:54.787Z,82.13
2019-04-10T20:53:46.266Z,86.93
2019-04-10T20:56:31.346Z,79.10
2019-04-10T20:59:20.689Z,83.17
2019-04-10T21:02:06.281Z,82.07
2019-04-10T21:04:37.423Z,81.83
2019-04-10T21:07:27.729Z,82.90
2019-04-10T21:10:19.256Z,81.57
2019-04-10T21:19:12.921Z,76.60
2019-04-10T21:21:55.814Z,78.57
2019-04-10T21:24:45.982Z,81.53
2019-04-10T21:27:37.649Z,76.17
2019-04-10T21:30:46.551Z,76.47
2019-04-10T21:36:53.340Z,70.80
2019-04-10T21:39:38.176Z,73.93
2019-04-10T21:42:28.694Z,70.27
2019-04-10T21:48:06.388Z,70.93
2019-04-10T21:50:37.703Z,70.73
2019-04-10T21:53:21.971Z,68.27
2019-04-10T21:56:13.360Z,65.73
2019-04-10T21:59:03.270Z,65.43
2019-04-10T22:01:54.943Z,66.23
2019-04-10T22:19:31.642Z,63.93
2019-04-10T22:22:22.451Z,65.80
2019-04-10T22:25:11.040Z,59.70
2019-04-10T22:40:29.164Z,57.67
2019-04-10T22:43:11.802Z,60.03
2019-04-10T22:46:02.555Z,56.67
2019-04-10T22:48:46.427Z,59.27
2019-04-10T22:51:36.195Z,57.03
2019-04-10T22:54:19.906Z,57.23
2019-04-10T23:00:03.228Z,57.40
2019-04-10T23:02:55.003Z,56.40
2019-04-10T23:05:42.789Z,57.27
2019-04-10T23:08:31.646Z,58.80
2019-04-10T23:14:12.356Z,57.13
2019-04-10T23:16:56.739Z,58.73
2019-04-10T23:19:46.783Z,57.53
2019-04-10T23:22:37.616Z,58.17
2019-04-10T23:25:20.853Z,56.63
2019-04-10T23:28:11.497Z,59.57
2019-04-10T23:30:55.148Z,58.63
2019-04-10T23:33:37.888Z,54.33
2019-04-10T23:36:27.696Z,56.33
2019-04-10T23:39:17.448Z,56.70
2019-04-10T23:42:01.537Z,54.67
2019-04-10T23:44:51.373Z,53.00
2019-04-10T23:47:35.987Z,52.60
2019-04-10T23:50:26.143Z,54.20
2019-04-10T23:53:10.159Z,47.70
2019-04-10T23:55:59.891Z,52.90
2019-04-10T23:58:42.380Z,52.57
